Time;durP1;ratioP1;P1;durP2;ratioP2;P2;SDS_P1;SDS_P2;PMS_P1;PMS_P2;Temp;Humidity;BMP_temperature;BMP_pressure;BME280_temperature;BME280_humidity;BME280_pressure;Samples;Min_cycle;Max_cycle;Signal;HPM_P1;HPM_P2
2021/06/18 00:02:11;;;;;;;6.97;4.00;;;;;;;21.02;67.05;99828.13;4920046;29;20052;-62
2021/06/18 00:04:43;;;;;;;6.95;4.47;;;;;;;20.95;66.98;99831.84;4920173;29;20064;-61
2021/06/18 00:07:14;;;;;;;7.28;4.88;;;;;;;20.95;67.37;99832.69;4919915;29;20510;-62
2021/06/18 00:09:47;;;;;;;5.80;4.35;;;;;;;20.92;67.13;99832.00;4919878;29;20494;-62
2021/06/18 00:12:19;;;;;;;6.70;4.35;;;;;;;20.85;67.81;99823.59;4920037;29;20103;-62
2021/06/18 00:14:52;;;;;;;6.28;4.63;;;;;;;20.87;67.70;99819.22;4919806;29;20074;-62
2021/06/18 00:17:22;;;;;;;8.32;5.07;;;;;;;20.86;67.52;99825.28;4934333;29;20067;-61
2021/06/18 00:19:55;;;;;;;6.78;4.50;;;;;;;20.82;67.52;99825.47;4919639;29;20131;-62
2021/06/18 00:22:30;;;;;;;7.25;5.32;;;;;;;20.79;67.80;99838.56;4919396;29;20055;-62
2021/06/18 00:25:03;;;;;;;7.18;4.88;;;;;;;20.76;67.71;99842.13;4919654;29;20418;-62
2021/06/18 00:27:35;;;;;;;7.53;5.00;;;;;;;20.70;67.73;99837.19;4919581;29;20060;-62
2021/06/18 00:30:10;;;;;;;6.18;4.50;;;;;;;20.65;67.87;99834.78;4919825;29;20072;-62
2021/06/18 00:32:43;;;;;;;6.57;4.72;;;;;;;20.58;68.34;99827.28;4949915;29;20063;-62
2021/06/18 00:35:15;;;;;;;6.68;4.75;;;;;;;20.53;68.25;99824.88;4957502;29;20063;-61
2021/06/18 00:37:49;;;;;;;6.20;4.63;;;;;;;20.46;68.36;99822.59;4956909;29;20134;-62
2021/06/18 00:40:22;;;;;;;7.07;4.57;;;;;;;20.42;68.38;99816.66;4957732;29;20491;-61
2021/06/18 00:42:51;;;;;;;7.15;4.63;;;;;;;20.44;68.26;99824.41;4957072;29;20043;-62
2021/06/18 00:45:21;;;;;;;6.88;5.50;;;;;;;20.40;68.34;99822.81;4957379;29;20078;-62
2021/06/18 00:47:56;;;;;;;;;;;;;;;20.28;68.31;99823.28;4957975;29;20063;-62
2021/06/18 00:50:29;;;;;;;7.40;4.85;;;;;;;20.05;69.14;99822.38;4957500;29;19929;-62
2021/06/18 00:53:05;;;;;;;7.57;4.70;;;;;;;19.83;69.42;99831.81;4660923;23;20050;-63
2021/06/18 00:55:37;;;;;;;8.55;4.82;;;;;;;19.57;70.15;99829.31;4995935;28;20169;-63
2021/06/18 00:58:09;;;;;;;8.23;5.10;;;;;;;19.37;70.79;99832.56;4995807;28;20058;-63
2021/06/18 01:00:41;;;;;;;7.13;5.10;;;;;;;19.34;71.34;99836.97;4995827;28;20133;-63
2021/06/18 01:03:14;;;;;;;6.70;4.90;;;;;;;19.42;71.45;99837.59;4994743;28;20054;-63
2021/06/18 01:05:47;;;;;;;7.30;5.15;;;;;;;19.59;71.03;99831.84;4995683;28;20129;-63
2021/06/18 01:08:25;;;;;;;6.80;5.07;;;;;;;19.69;70.56;99828.88;4995538;28;20054;-63
2021/06/18 01:11:07;;;;;;;7.45;5.07;;;;;;;19.78;70.33;99836.31;4995648;28;20050;-64
2021/06/18 01:13:53;;;;;;;7.30;4.78;;;;;;;19.69;70.12;99823.69;4996116;28;20055;-63
2021/06/18 01:16:31;;;;;;;8.55;4.78;;;;;;;19.74;69.95;99826.97;4995740;28;20058;-63
2021/06/18 01:19:15;;;;;;;7.20;4.82;;;;;;;19.76;69.54;99819.13;4995406;28;20515;-63
2021/06/18 01:21:54;;;;;;;8.25;4.70;;;;;;;19.72;69.34;99820.16;4995306;28;20061;-63
2021/06/18 01:24:37;;;;;;;7.38;4.70;;;;;;;19.69;69.12;99818.53;4995593;28;20054;-63
2021/06/18 01:27:26;;;;;;;7.43;4.60;;;;;;;19.68;69.40;99814.22;4995222;28;20129;-63
2021/06/18 01:30:05;;;;;;;8.00;4.93;;;;;;;19.71;69.16;99811.53;4995268;28;20433;-64
2021/06/18 01:32:41;;;;;;;8.30;4.72;;;;;;;19.52;69.40;99810.50;4995214;28;20069;-63
2021/06/18 01:35:16;;;;;;;6.63;4.78;;;;;;;19.38;69.62;99810.13;4995465;28;20046;-63
2021/06/18 01:37:54;;;;;;;8.32;4.82;;;;;;;19.38;70.03;99807.53;4995333;28;20053;-63
2021/06/18 01:40:29;;;;;;;7.93;4.88;;;;;;;19.46;69.79;99809.88;4995349;28;20057;-64
2021/06/18 01:43:01;;;;;;;10.13;5.57;;;;;;;19.45;69.66;99811.63;4994861;28;20104;-63
2021/06/18 01:45:33;;;;;;;9.57;5.30;;;;;;;19.46;69.57;99815.06;4994986;28;20202;-63
2021/06/18 01:48:06;;;;;;;6.97;4.75;;;;;;;19.42;69.42;99803.94;4994909;28;20074;-63
2021/06/18 01:50:49;;;;;;;7.03;4.97;;;;;;;19.39;69.32;99798.84;4993179;28;20057;-63
2021/06/18 01:53:25;;;;;;;7.20;5.60;;;;;;;19.35;69.58;99797.25;4993935;28;20526;-63
2021/06/18 01:55:59;;;;;;;9.38;5.28;;;;;;;19.38;69.47;99807.53;4994807;28;20050;-63
2021/06/18 01:58:35;;;;;;;8.93;5.22;;;;;;;19.31;69.52;99801.72;4994718;28;20137;-63
2021/06/18 02:01:10;;;;;;;10.15;5.30;;;;;;;19.22;69.79;99801.16;4994971;28;20050;-63
2021/06/18 02:03:46;;;;;;;9.40;5.45;;;;;;;19.07;70.23;99788.75;4994466;28;20554;-63
2021/06/18 02:06:21;;;;;;;9.13;4.90;;;;;;;19.03;70.52;99805.25;4994710;28;20104;-62
2021/06/18 02:08:57;;;;;;;9.68;5.38;;;;;;;18.97;70.83;99795.13;4994524;28;20133;-63
2021/06/18 02:11:37;;;;;;;8.32;5.38;;;;;;;18.99;70.97;99798.50;4994396;28;20058;-63
2021/06/18 02:14:13;;;;;;;6.38;5.15;;;;;;;19.04;70.87;99797.44;4995023;28;20450;-63
2021/06/18 02:16:52;;;;;;;8.20;5.47;;;;;;;19.09;70.63;99798.16;4994798;28;20217;-63
2021/06/18 02:19:26;;;;;;;9.25;5.55;;;;;;;19.11;70.28;99788.59;4994497;28;20060;-63
2021/06/18 02:21:59;;;;;;;7.85;5.78;;;;;;;19.15;70.32;99799.66;4994505;28;20125;-63
2021/06/18 02:24:34;;;;;;;7.82;5.20;;;;;;;19.15;69.99;99794.47;4994159;28;20496;-63
2021/06/18 02:27:08;;;;;;;7.45;5.55;;;;;;;19.18;69.95;99795.25;4994451;28;20500;-63
2021/06/18 02:29:41;;;;;;;10.18;5.78;;;;;;;19.18;69.68;99799.56;4994415;28;20451;-63
2021/06/18 02:32:17;;;;;;;8.88;5.40;;;;;;;19.13;69.76;99804.03;4994385;28;20066;-63
2021/06/18 02:34:50;;;;;;;8.57;5.88;;;;;;;19.11;69.76;99803.25;4994656;28;20062;-63
2021/06/18 02:37:23;;;;;;;10.23;6.30;;;;;;;19.10;69.59;99806.75;4994334;28;20054;-63
2021/06/18 02:39:55;;;;;;;9.05;5.50;;;;;;;19.07;69.80;99819.78;4994557;28;20058;-63
2021/06/18 02:42:28;;;;;;;8.23;5.70;;;;;;;19.04;69.58;99817.28;4994220;28;20140;-63
2021/06/18 02:45:00;;;;;;;7.63;5.18;;;;;;;19.02;69.29;99816.50;4994249;28;20491;-63
2021/06/18 02:47:40;;;;;;;7.43;5.50;;;;;;;18.98;69.41;99812.34;4994314;28;20070;-63
2021/06/18 02:50:17;;;;;;;7.38;5.78;;;;;;;18.98;69.40;99822.69;4994198;28;20054;-63
2021/06/18 02:52:56;;;;;;;14.85;6.35;;;;;;;18.98;69.32;99814.94;4993366;28;20055;-63
2021/06/18 02:55:38;;;;;;;11.10;6.20;;;;;;;18.91;69.38;99816.03;4994150;28;20503;-64
2021/06/18 02:58:14;;;;;;;8.57;5.68;;;;;;;18.77;69.93;99818.19;4994903;28;20058;-63
2021/06/18 03:00:44;;;;;;;9.35;6.15;;;;;;;18.69;70.13;99827.03;4994144;28;20046;-63
2021/06/18 03:03:19;;;;;;;8.48;6.00;;;;;;;18.63;70.46;99822.06;4994266;28;20089;-63
2021/06/18 03:05:58;;;;;;;9.23;6.35;;;;;;;18.54;70.85;99826.66;4994049;28;20047;-63
2021/06/18 03:08:37;;;;;;;10.57;5.85;;;;;;;18.52;71.13;99831.88;4993734;28;20081;-63
2021/06/18 03:11:12;;;;;;;7.93;5.93;;;;;;;18.42;71.35;99827.88;4993989;28;20535;-62
2021/06/18 03:13:47;;;;;;;10.15;5.95;;;;;;;18.43;71.85;99823.50;4994022;28;20046;-63
2021/06/18 03:16:23;;;;;;;7.93;6.00;;;;;;;18.54;71.83;99827.53;4993759;28;20062;-63
2021/06/18 03:19:01;;;;;;;7.95;5.93;;;;;;;18.65;71.66;99820.25;4993960;28;20527;-63
2021/06/18 03:21:36;;;;;;;7.60;5.85;;;;;;;18.80;71.05;99823.25;4993841;28;20054;-63
2021/06/18 03:24:11;;;;;;;8.88;6.35;;;;;;;18.89;71.16;99825.53;4976299;28;20439;-62
2021/06/18 03:26:45;;;;;;;8.82;5.97;;;;;;;18.94;70.58;99827.09;4979244;28;20054;-63
2021/06/18 03:29:19;;;;;;;9.27;6.30;;;;;;;18.80;70.71;99823.25;4997461;28;20138;-63
2021/06/18 03:31:54;;;;;;;9.23;6.30;;;;;;;18.91;70.95;99832.38;4997404;28;20089;-63
2021/06/18 03:34:29;;;;;;;9.65;6.25;;;;;;;18.98;70.66;99840.81;4997375;28;20392;-63
2021/06/18 03:37:03;;;;;;;10.80;6.00;;;;;;;19.10;70.52;99837.81;4997415;28;20475;-62
2021/06/18 03:39:40;;;;;;;8.48;5.90;;;;;;;19.21;70.13;99840.88;4997350;28;20105;-63
2021/06/18 03:42:13;;;;;;;8.48;6.07;;;;;;;19.19;70.15;99845.25;4997117;28;20436;-63
2021/06/18 03:44:43;;;;;;;8.88;6.10;;;;;;;19.26;70.16;99841.56;4996936;28;20070;-63
2021/06/18 03:47:14;;;;;;;9.38;6.32;;;;;;;19.44;69.71;99840.97;4997169;28;20117;-62
2021/06/18 03:49:46;;;;;;;8.48;5.80;;;;;;;19.53;69.41;99843.25;4997395;28;20082;-63
2021/06/18 03:52:24;;;;;;;8.75;6.55;;;;;;;19.57;69.11;99847.44;4996698;28;20046;-63
2021/06/18 03:55:00;;;;;;;8.10;5.80;;;;;;;19.64;68.94;99851.50;4958313;28;20409;-63
2021/06/18 03:57:35;;;;;;;11.52;5.90;;;;;;;19.68;68.62;99847.91;4958259;28;20133;-63
2021/06/18 04:00:10;;;;;;;10.75;7.13;;;;;;;19.77;68.52;99847.56;4958197;28;20085;-63
2021/06/18 04:02:44;;;;;;;9.55;6.20;;;;;;;19.85;68.26;99850.75;4958127;28;20088;-63
2021/06/18 04:05:22;;;;;;;8.38;6.30;;;;;;;19.97;68.04;99858.06;4957810;28;20051;-62
2021/06/18 04:07:57;;;;;;;9.20;5.82;;;;;;;20.08;67.75;99853.34;4958004;28;20070;-63
2021/06/18 04:10:31;;;;;;;11.52;5.53;;;;;;;20.20;67.23;99856.41;4957991;28;20105;-63
2021/06/18 04:13:04;;;;;;;11.52;5.32;;;;;;;20.30;66.80;99847.41;4957823;28;20090;-63
2021/06/18 04:15:38;;;;;;;10.98;5.78;;;;;;;20.42;66.33;99858.16;4957910;28;20058;-63
2021/06/18 04:18:12;;;;;;;9.57;6.38;;;;;;;20.53;65.99;99855.16;4957898;28;20062;-62
2021/06/18 04:20:46;;;;;;;11.40;6.05;;;;;;;20.66;65.77;99851.16;4957854;29;20047;-63
2021/06/18 04:23:16;;;;;;;13.63;6.25;;;;;;;20.81;65.14;99847.97;4957924;29;20063;-63
2021/06/18 04:25:48;;;;;;;9.32;5.55;;;;;;;20.96;64.64;99846.53;4957953;28;20524;-63
2021/06/18 04:28:21;;;;;;;8.55;6.00;;;;;;;21.09;64.20;99834.78;4957739;28;20059;-62
2021/06/18 04:30:54;;;;;;;9.05;6.32;;;;;;;21.25;63.65;99841.03;4957615;29;20051;-62
2021/06/18 04:33:26;;;;;;;9.23;5.95;;;;;;;21.46;63.44;99831.47;4957778;28;20086;-63
2021/06/18 04:36:00;;;;;;;12.60;6.07;;;;;;;21.64;62.91;99838.50;4958124;28;20076;-63
2021/06/18 04:38:33;;;;;;;15.77;6.45;;;;;;;21.81;62.31;99836.00;4956519;28;20564;-63
2021/06/18 04:41:02;;;;;;;10.18;6.72;;;;;;;21.97;62.20;99831.84;4957693;28;20086;-63
2021/06/18 04:43:32;;;;;;;11.65;5.72;;;;;;;22.13;62.02;99827.63;4957165;28;20114;-63
2021/06/18 04:46:04;;;;;;;8.68;5.57;;;;;;;22.34;61.31;99826.66;4957320;28;20055;-62
2021/06/18 04:48:37;;;;;;;10.57;5.75;;;;;;;22.44;60.74;99830.50;4957635;29;20062;-63
2021/06/18 04:51:11;;;;;;;8.93;5.85;;;;;;;22.59;60.55;99837.59;4957261;28;20055;-63
2021/06/18 04:53:44;;;;;;;9.82;5.97;;;;;;;22.79;60.29;99833.25;4976285;28;20159;-63
2021/06/18 04:56:16;;;;;;;16.25;6.18;;;;;;;22.95;59.90;99840.25;4995835;28;20062;-63
2021/06/18 04:58:50;;;;;;;10.20;6.50;;;;;;;23.08;59.67;99848.31;4995769;28;20050;-63
2021/06/18 05:01:20;;;;;;;8.35;5.70;;;;;;;23.18;59.37;99841.69;4995851;28;20459;-63
2021/06/18 05:03:49;;;;;;;8.60;5.75;;;;;;;23.32;58.98;99844.47;4995599;28;20055;-62
2021/06/18 05:06:24;;;;;;;9.57;6.25;;;;;;;23.30;58.77;99830.66;4995598;28;20051;-63
2021/06/18 05:08:56;;;;;;;10.30;6.05;;;;;;;23.52;58.37;99851.31;4995602;28;20062;-63
2021/06/18 05:11:30;;;;;;;7.60;5.68;;;;;;;23.60;57.86;99850.00;4995506;28;20054;-62
2021/06/18 05:14:02;;;;;;;9.77;6.18;;;;;;;23.61;57.58;99841.25;4995722;28;20054;-63
2021/06/18 05:16:35;;;;;;;9.98;6.65;;;;;;;23.69;57.41;99853.91;4995429;28;20046;-63
2021/06/18 05:19:07;;;;;;;9.75;6.18;;;;;;;23.78;56.95;99854.25;4995372;28;20129;-63
2021/06/18 05:21:42;;;;;;;8.02;6.15;;;;;;;23.85;56.73;99855.63;4995575;28;20061;-63
2021/06/18 05:24:15;;;;;;;8.63;6.22;;;;;;;23.95;56.49;99856.84;4995091;28;20073;-63
2021/06/18 05:26:47;;;;;;;11.63;5.82;;;;;;;24.05;55.83;99853.72;4995992;28;20480;-62
2021/06/18 05:29:20;;;;;;;8.60;5.95;;;;;;;24.16;55.13;99859.28;4995487;28;20050;-63
2021/06/18 05:31:54;;;;;;;9.93;5.78;;;;;;;24.27;54.59;99847.34;4995222;28;20058;-62
2021/06/18 05:34:27;;;;;;;7.03;5.70;;;;;;;24.25;54.02;99850.94;4995063;28;20399;-61
2021/06/18 05:37:01;;;;;;;9.80;6.40;;;;;;;24.40;54.03;99857.97;4995085;28;20137;-63
2021/06/18 05:39:34;;;;;;;10.02;5.97;;;;;;;24.52;53.78;99859.91;4995054;28;20062;-63
2021/06/18 05:42:07;;;;;;;10.15;6.00;;;;;;;24.66;53.41;99862.59;4994985;28;20081;-64
2021/06/18 05:44:40;;;;;;;8.00;5.82;;;;;;;24.76;53.14;99855.94;4994647;28;20047;-62
2021/06/18 05:47:12;;;;;;;7.80;5.90;;;;;;;24.90;52.79;99853.41;4994748;28;20073;-63
2021/06/18 05:49:42;;;;;;;7.60;5.55;;;;;;;24.93;52.79;99847.19;4994555;28;20096;-63
2021/06/18 05:52:15;;;;;;;7.55;5.60;;;;;;;25.02;52.52;99852.72;4994800;28;20050;-63
2021/06/18 05:54:45;;;;;;;8.73;5.82;;;;;;;25.13;52.18;99850.31;4994709;28;20109;-63
2021/06/18 05:57:17;;;;;;;7.30;5.60;;;;;;;25.23;52.29;99855.84;4994788;28;20085;-63
2021/06/18 05:59:47;;;;;;;8.88;5.72;;;;;;;25.29;52.10;99845.88;4994740;28;20050;-63
2021/06/18 06:02:19;;;;;;;8.18;5.88;;;;;;;25.47;52.35;99849.25;4994617;28;20053;-63
2021/06/18 06:04:49;;;;;;;8.60;5.50;;;;;;;25.65;52.13;99844.69;4994490;28;20050;-63
2021/06/18 06:07:21;;;;;;;7.82;5.50;;;;;;;25.79;52.01;99844.72;4994607;28;20542;-63
2021/06/18 06:09:51;;;;;;;8.57;5.90;;;;;;;25.85;51.49;99849.56;4994479;28;20065;-64
2021/06/18 06:12:22;;;;;;;;;;;;;;;25.91;51.41;99847.41;4994969;28;20070;-63
2021/06/18 06:14:52;;;;;;;9.73;7.30;;;;;;;26.00;51.01;99853.88;4994730;28;19928;-63
2021/06/18 06:17:24;;;;;;;8.13;5.97;;;;;;;26.14;50.88;99845.19;4994504;28;20140;-63
2021/06/18 06:19:54;;;;;;;9.80;6.80;;;;;;;26.33;50.95;99846.56;4994482;28;20058;-63
2021/06/18 06:22:28;;;;;;;10.10;6.20;;;;;;;26.50;50.61;99848.97;4994686;28;20081;-63
2021/06/18 06:24:58;;;;;;;9.27;5.78;;;;;;;26.61;50.37;99851.72;4994324;28;20097;-63
2021/06/18 06:27:30;;;;;;;7.03;5.88;;;;;;;26.61;50.02;99851.72;4994603;28;20492;-62
2021/06/18 06:30:00;;;;;;;8.57;5.47;;;;;;;26.65;50.02;99841.06;4994133;28;20439;-63
2021/06/18 06:32:29;;;;;;;;;;;;;;;26.83;50.38;99846.00;4994752;28;20050;-63
2021/06/18 06:34:59;;;;;;;11.80;6.07;;;;;;;27.05;50.17;99850.69;4994359;28;19926;-63
2021/06/18 06:37:33;;;;;;;10.50;5.80;;;;;;;27.21;48.64;99854.00;4994205;28;20508;-63
2021/06/18 06:40:03;;;;;;;8.20;5.65;;;;;;;27.24;48.21;99851.13;4994270;28;20054;-62
2021/06/18 06:42:39;;;;;;;6.70;5.20;;;;;;;27.27;47.48;99856.19;4994210;28;20058;-63
2021/06/18 06:45:13;;;;;;;7.35;5.13;;;;;;;27.43;47.79;99856.88;4994126;28;20097;-61
2021/06/18 06:47:47;;;;;;;10.32;5.30;;;;;;;27.48;47.06;99849.53;4993980;28;20046;-62
2021/06/18 06:50:20;;;;;;;10.55;5.55;;;;;;;27.62;46.24;99857.31;4993995;28;20105;-62
2021/06/18 06:52:51;;;;;;;7.70;5.60;;;;;;;27.76;46.29;99859.81;4993059;28;20062;-62
2021/06/18 06:55:24;;;;;;;9.00;5.57;;;;;;;27.84;46.34;99864.56;4994038;28;20142;-63
2021/06/18 06:57:56;;;;;;;8.65;5.70;;;;;;;27.99;46.06;99862.66;4994360;28;20129;-63
2021/06/18 07:00:29;;;;;;;6.85;4.85;;;;;;;28.03;45.95;99856.28;4995015;28;20100;-61
2021/06/18 07:03:00;;;;;;;10.00;5.22;;;;;;;28.03;45.78;99845.78;4997815;28;20073;-64
2021/06/18 07:05:36;;;;;;;8.57;5.05;;;;;;;28.21;46.49;99861.09;4997841;28;20046;-63
2021/06/18 07:08:18;;;;;;;8.90;5.35;;;;;;;28.35;45.64;99857.50;4998104;28;20077;-64
2021/06/18 07:10:53;;;;;;;7.35;5.25;;;;;;;28.45;45.27;99858.53;4997772;28;20074;-64
2021/06/18 07:13:26;;;;;;;8.65;5.13;;;;;;;28.47;44.92;99856.63;4997733;28;20062;-63
2021/06/18 07:15:59;;;;;;;6.82;5.00;;;;;;;28.54;44.63;99852.59;4997659;28;20411;-63
2021/06/18 07:18:35;;;;;;;6.00;4.45;;;;;;;28.62;44.23;99858.19;4997613;28;20133;-63
2021/06/18 07:21:08;;;;;;;7.90;5.43;;;;;;;28.82;44.41;99852.31;4997432;28;20058;-64
2021/06/18 07:23:40;;;;;;;6.28;4.65;;;;;;;28.93;43.83;99844.50;4996997;28;20081;-62
2021/06/18 07:26:09;;;;;;;6.65;4.70;;;;;;;28.94;43.59;99835.63;4997205;28;20050;-64
2021/06/18 07:28:40;;;;;;;6.60;4.65;;;;;;;29.12;43.71;99844.81;4996855;28;20452;-63
2021/06/18 07:31:09;;;;;;;5.38;4.22;;;;;;;29.16;43.25;99835.72;4997016;28;20054;-64
2021/06/18 07:33:39;;;;;;;6.47;4.75;;;;;;;29.28;43.76;99834.00;4997034;28;20539;-63
2021/06/18 07:36:08;;;;;;;8.50;4.97;;;;;;;29.39;43.61;99839.31;4997183;28;20054;-63
2021/06/18 07:38:40;;;;;;;7.30;4.97;;;;;;;29.48;43.16;99840.38;4996809;28;20046;-64
2021/06/18 07:41:09;;;;;;;7.03;4.85;;;;;;;29.62;44.18;99842.81;4997066;28;20117;-64
2021/06/18 07:43:38;;;;;;;;;;;;;;;29.72;43.12;99843.78;4997463;28;20047;-62
2021/06/18 07:46:07;;;;;;;8.82;4.47;;;;;;;29.82;42.20;99844.78;4996680;28;19929;-63
2021/06/18 07:48:40;;;;;;;7.25;4.45;;;;;;;29.84;42.00;99837.59;4996831;28;20463;-64
2021/06/18 07:51:13;;;;;;;5.72;4.22;;;;;;;29.90;43.16;99847.63;4996977;28;20056;-65
2021/06/18 07:53:45;;;;;;;5.40;4.20;;;;;;;29.83;43.78;99841.19;4996392;28;20067;-65
2021/06/18 07:56:23;;;;;;;5.88;4.07;;;;;;;29.80;44.10;99836.16;4996798;28;20042;-65
2021/06/18 07:58:56;;;;;;;7.18;4.47;;;;;;;29.67;44.67;99835.41;4996763;28;20066;-64
2021/06/18 08:01:29;;;;;;;5.25;4.07;;;;;;;29.54;44.59;99826.75;4996789;28;20062;-64
2021/06/18 08:04:03;;;;;;;6.22;4.30;;;;;;;29.61;44.92;99825.34;4996866;28;20058;-65
2021/06/18 08:06:32;;;;;;;5.82;4.38;;;;;;;29.58;44.50;99833.47;4996803;28;20389;-65
2021/06/18 08:09:10;;;;;;;6.63;4.70;;;;;;;29.28;44.49;99820.00;4996593;28;20081;-64
2021/06/18 08:11:42;;;;;;;6.65;3.90;;;;;;;29.55;44.46;99823.19;4996614;28;20050;-65
2021/06/18 08:14:13;;;;;;;6.03;4.38;;;;;;;29.80;44.60;99820.38;4996776;28;20058;-64
2021/06/18 08:16:43;;;;;;;5.75;4.38;;;;;;;29.88;44.78;99828.50;4996416;28;20058;-64
2021/06/18 08:19:16;;;;;;;6.93;4.72;;;;;;;29.83;44.85;99828.00;4996604;28;20089;-64
2021/06/18 08:21:48;;;;;;;7.38;4.60;;;;;;;29.70;45.58;99829.91;4996866;28;20058;-66
2021/06/18 08:24:20;;;;;;;7.65;4.53;;;;;;;29.63;45.75;99824.28;4996417;28;20097;-65
2021/06/18 08:26:52;;;;;;;6.80;4.78;;;;;;;29.87;45.21;99824.22;4996249;28;20061;-65
2021/06/18 08:29:22;;;;;;;5.57;4.47;;;;;;;30.03;44.68;99816.78;4996326;28;20477;-65
2021/06/18 08:31:51;;;;;;;6.20;4.78;;;;;;;30.28;44.11;99820.94;4996406;28;20084;-64
2021/06/18 08:34:21;;;;;;;5.57;4.60;;;;;;;30.17;44.73;99813.88;4995960;28;20034;-64
2021/06/18 08:36:50;;;;;;;6.07;4.38;;;;;;;30.15;45.11;99815.81;4995881;28;20050;-65
2021/06/18 08:39:21;;;;;;;5.72;4.40;;;;;;;29.97;44.70;99811.97;4996246;28;20057;-65
2021/06/18 08:41:51;;;;;;;6.55;4.53;;;;;;;30.07;44.41;99812.94;4996021;28;20070;-65
2021/06/18 08:44:24;;;;;;;6.82;4.22;;;;;;;30.24;43.92;99811.59;4996432;28;20063;-65
2021/06/18 08:47:00;;;;;;;5.72;4.10;;;;;;;30.21;43.66;99802.13;4995608;28;20062;-64
2021/06/18 08:49:32;;;;;;;8.10;4.35;;;;;;;30.39;43.04;99808.63;4995925;28;20058;-64
2021/06/18 08:52:06;;;;;;;5.38;3.80;;;;;;;30.41;42.49;99806.69;4995783;28;20049;-64
2021/06/18 08:54:43;;;;;;;5.82;4.03;;;;;;;30.68;42.44;99797.50;4995378;28;20054;-64
2021/06/18 08:57:15;;;;;;;8.65;3.85;;;;;;;30.72;41.41;99793.66;4995681;28;20108;-65
2021/06/18 08:59:44;;;;;;;7.03;3.58;;;;;;;30.75;40.00;99806.59;4995647;28;20092;-67
2021/06/18 09:02:15;;;;;;;6.15;3.63;;;;;;;30.50;39.93;99805.94;4995631;28;20500;-66
2021/06/18 09:05:06;;;;;;;5.05;3.50;;;;;;;30.60;39.88;99805.19;4995627;28;20432;-68
2021/06/18 09:08:00;;;;;;;6.13;3.78;;;;;;;30.55;39.03;99802.13;4995354;28;20053;-65
2021/06/18 09:10:36;;;;;;;5.35;3.30;;;;;;;30.52;38.89;99802.34;4989210;28;20058;-67
2021/06/18 09:13:12;;;;;;;6.68;3.92;;;;;;;30.36;40.01;99787.78;4995493;28;20136;-66
2021/06/18 09:15:49;;;;;;;5.35;3.70;;;;;;;30.26;41.34;99799.97;4995228;28;20471;-66
2021/06/18 09:18:32;;;;;;;4.82;3.50;;;;;;;30.39;41.29;99798.06;4995202;28;20049;-66
2021/06/18 09:21:17;;;;;;;4.32;3.10;;;;;;;30.43;39.17;99793.38;4995360;28;20054;-67
2021/06/18 09:23:55;;;;;;;6.07;2.97;;;;;;;30.34;40.29;99800.25;4994465;28;20054;-66
2021/06/18 09:26:33;;;;;;;4.47;2.78;;;;;;;30.46;39.14;99799.25;4994928;28;20070;-66
2021/06/18 09:29:11;;;;;;;4.18;2.90;;;;;;;30.48;37.77;99793.84;4995252;28;20073;-66
2021/06/18 09:31:47;;;;;;;6.10;3.00;;;;;;;30.57;38.60;99789.66;4994942;28;20054;-65
2021/06/18 09:34:32;;;;;;;6.15;3.75;;;;;;;30.49;39.13;99792.91;4994892;28;20089;-65
2021/06/18 09:37:23;;;;;;;4.67;2.70;;;;;;;30.40;39.15;99798.91;4934896;29;20060;-66
2021/06/18 09:40:10;;;;;;;4.20;3.00;;;;;;;30.58;38.95;99791.31;4934705;29;20142;-66
2021/06/18 09:42:55;;;;;;;4.22;3.17;;;;;;;30.76;38.45;99800.34;4934794;29;20433;-64
2021/06/18 09:45:49;;;;;;;4.90;3.05;;;;;;;30.70;37.21;99785.03;4934781;29;20130;-65
2021/06/18 09:48:21;;;;;;;4.78;3.17;;;;;;;30.92;38.55;99792.88;4934486;29;20135;-66
2021/06/18 09:50:59;;;;;;;4.38;3.25;;;;;;;30.69;39.32;99789.47;4934692;29;20059;-65
2021/06/18 09:53:31;;;;;;;4.88;3.17;;;;;;;30.84;39.80;99788.22;4933731;29;20055;-70
2021/06/18 09:56:04;;;;;;;5.70;3.10;;;;;;;30.85;38.32;99796.97;4933275;29;20047;-65
2021/06/18 09:58:39;;;;;;;4.97;3.20;;;;;;;30.91;37.58;99788.56;4934852;29;20055;-66
2021/06/18 10:01:16;;;;;;;4.88;3.28;;;;;;;31.00;38.29;99793.09;4934898;29;20058;-67
2021/06/18 10:03:59;;;;;;;4.68;3.17;;;;;;;30.86;37.76;99790.69;4934467;29;20489;-67
2021/06/18 10:06:30;;;;;;;5.70;3.58;;;;;;;30.92;38.20;99796.38;4918450;29;20055;-67
2021/06/18 10:09:01;;;;;;;4.57;3.40;;;;;;;30.80;38.21;99801.78;4934494;29;20416;-65
2021/06/18 10:11:31;;;;;;;5.65;3.70;;;;;;;30.85;36.86;99784.63;4934783;29;20544;-65
2021/06/18 10:14:02;;;;;;;4.80;3.70;;;;;;;31.00;37.60;99787.81;4948848;28;20142;-67
2021/06/18 10:16:32;;;;;;;5.35;3.30;;;;;;;31.04;38.48;99779.53;4995042;28;20054;-66
2021/06/18 10:19:04;;;;;;;5.30;3.65;;;;;;;30.93;37.89;99765.56;4994002;28;20427;-66
2021/06/18 10:21:44;;;;;;;5.03;3.70;;;;;;;31.10;37.96;99775.50;4994478;28;20121;-67
2021/06/18 10:24:16;;;;;;;4.47;3.25;;;;;;;30.93;38.31;99776.09;4994508;28;20066;-65
2021/06/18 10:26:52;;;;;;;4.20;2.85;;;;;;;31.02;37.95;99775.34;4994193;28;20116;-64
2021/06/18 10:29:36;;;;;;;5.60;3.20;;;;;;;31.16;38.07;99772.38;4994357;28;20054;-66
2021/06/18 10:32:28;;;;;;;6.20;3.00;;;;;;;31.20;36.83;99773.78;4994368;28;20073;-65
2021/06/18 10:34:58;;;;;;;6.80;3.38;;;;;;;31.44;36.36;99766.47;4995980;28;20125;-65
2021/06/18 10:37:31;;;;;;;5.10;3.38;;;;;;;31.74;36.68;99761.19;4998402;28;20104;-65
2021/06/18 10:40:08;;;;;;;5.53;3.60;;;;;;;31.66;36.92;99771.56;4998433;28;20046;-66
2021/06/18 10:43:09;;;;;;;5.47;3.50;;;;;;;31.60;36.82;99755.44;4998247;28;20061;-67
2021/06/18 10:46:02;;;;;;;5.75;3.65;;;;;;;31.47;37.05;99755.66;4998511;28;20081;-63
2021/06/18 10:48:58;;;;;;;4.75;2.97;;;;;;;31.60;35.92;99753.59;4998173;28;20049;-64
2021/06/18 10:51:33;;;;;;;5.43;3.15;;;;;;;31.58;35.99;99759.97;4998257;28;20496;-66
2021/06/18 10:54:09;;;;;;;4.30;2.97;;;;;;;31.52;35.88;99748.16;4997956;28;20050;-67
2021/06/18 10:56:55;;;;;;;4.40;3.05;;;;;;;31.86;35.07;99745.25;4997835;28;20100;-65
2021/06/18 10:59:34;;;;;;;5.32;3.00;;;;;;;31.91;34.68;99745.66;4980735;28;20062;-66
2021/06/18 11:02:30;;;;;;;4.65;2.85;;;;;;;31.73;35.93;99748.94;4998056;28;20511;-66
2021/06/18 11:05:26;;;;;;;4.78;3.10;;;;;;;31.58;36.28;99742.34;4998185;28;20070;-66
2021/06/18 11:08:17;;;;;;;4.72;2.88;;;;;;;31.38;36.31;99745.00;4997300;28;20097;-66
2021/06/18 11:11:27;;;;;;;7.13;3.00;;;;;;;31.20;35.70;99741.28;4980483;28;20415;-65
2021/06/18 11:14:03;;;;;;;4.30;2.80;;;;;;;31.45;37.60;99741.75;4997675;28;20129;-64
2021/06/18 11:16:35;;;;;;;6.03;3.60;;;;;;;31.66;36.45;99744.31;4997672;28;20082;-65
2021/06/18 11:19:23;;;;;;;4.72;3.00;;;;;;;31.99;34.14;99730.00;4997983;28;20089;-66
2021/06/18 11:22:18;;;;;;;5.15;3.15;;;;;;;31.79;33.42;99724.63;4980079;28;20069;-64
2021/06/18 11:24:48;;;;;;;3.90;2.67;;;;;;;31.90;33.73;99733.41;4982963;28;20061;-67
2021/06/18 11:27:28;;;;;;;4.05;2.90;;;;;;;31.78;33.23;99725.63;4997235;28;20046;-66
2021/06/18 11:30:28;;;;;;;5.35;2.60;;;;;;;32.02;32.68;99729.72;4997399;28;20058;-66
2021/06/18 11:33:01;;;;;;;4.47;3.17;;;;;;;32.16;32.13;99716.97;4997099;28;20057;-65
2021/06/18 11:35:42;;;;;;;3.72;2.70;;;;;;;32.17;32.11;99715.16;4997611;28;20092;-65
2021/06/18 11:38:17;;;;;;;5.25;3.13;;;;;;;32.02;33.20;99724.44;4997245;28;20046;-66
2021/06/18 11:40:56;;;;;;;6.03;3.40;;;;;;;32.00;34.48;99721.13;4997565;28;20146;-64
2021/06/18 11:43:26;;;;;;;4.78;3.10;;;;;;;32.01;33.34;99712.22;4997150;28;20097;-67
2021/06/18 11:45:58;;;;;;;5.28;2.80;;;;;;;32.20;32.69;99704.34;4996438;28;20407;-67
2021/06/18 11:48:28;;;;;;;4.10;2.75;;;;;;;32.18;32.02;99693.03;4996701;28;20101;-66
2021/06/18 11:50:58;;;;;;;4.03;2.60;;;;;;;32.43;32.66;99705.72;4997028;28;20420;-66
2021/06/18 11:53:39;;;;;;;3.97;2.83;;;;;;;32.58;32.83;99695.59;4996100;28;20057;-66
2021/06/18 11:56:12;;;;;;;4.15;2.88;;;;;;;32.63;34.07;99704.78;4996973;28;20104;-66
2021/06/18 11:58:46;;;;;;;4.07;2.90;;;;;;;32.46;34.27;99708.09;4996911;28;20412;-66
2021/06/18 12:01:21;;;;;;;5.55;2.90;;;;;;;32.58;34.43;99701.72;4997103;28;20141;-65
2021/06/18 12:03:53;;;;;;;5.20;3.10;;;;;;;32.39;34.67;99693.78;4996768;28;20049;-66
2021/06/18 12:06:23;;;;;;;4.57;2.80;;;;;;;32.42;34.92;99701.41;4996607;28;20046;-66
2021/06/18 12:09:02;;;;;;;6.47;3.72;;;;;;;32.72;35.35;99709.22;4996761;28;20038;-65
2021/06/18 12:11:33;;;;;;;6.78;3.20;;;;;;;32.78;35.56;99698.06;4997022;28;20068;-66